sensor_id;sensor_type;location;lat;lon;timestamp;pressure;altitude;pressure_sealevel;temperature;humidity
29569;BME280;16501;51.462;14.346;2022-08-18T00:02:06;99645.72;;;23.67;58.99
29569;BME280;16501;51.462;14.346;2022-08-18T00:04:33;99658.75;;;23.52;58.96
29569;BME280;16501;51.462;14.346;2022-08-18T00:07:00;99657.03;;;23.49;59.01
29569;BME280;16501;51.462;14.346;2022-08-18T00:09:25;99644.66;;;23.47;58.84
29569;BME280;16501;51.462;14.346;2022-08-18T00:11:51;99656.28;;;23.49;58.84
29569;BME280;16501;51.462;14.346;2022-08-18T00:14:20;99655.56;;;23.41;60.11
29569;BME280;16501;51.462;14.346;2022-08-18T00:16:45;99650.09;;;23.27;60.30
29569;BME280;16501;51.462;14.346;2022-08-18T00:19:11;99663.03;;;23.36;60.79
29569;BME280;16501;51.462;14.346;2022-08-18T00:21:37;99583.91;;;22.75;60.40
29569;BME280;16501;51.462;14.346;2022-08-18T00:24:03;99635.41;;;23.23;60.95
29569;BME280;16501;51.462;14.346;2022-08-18T00:26:31;99639.63;;;23.22;60.37
29569;BME280;16501;51.462;14.346;2022-08-18T00:29:01;99630.13;;;23.12;60.58
29569;BME280;16501;51.462;14.346;2022-08-18T00:31:27;99593.38;;;22.93;60.53
29569;BME280;16501;51.462;14.346;2022-08-18T00:33:53;99642.72;;;23.17;60.63
29569;BME280;16501;51.462;14.346;2022-08-18T00:36:21;99634.72;;;23.00;60.56
29569;BME280;16501;51.462;14.346;2022-08-18T00:38:46;99609.63;;;22.83;60.77
29569;BME280;16501;51.462;14.346;2022-08-18T00:41:12;99641.38;;;23.02;60.94
29569;BME280;16501;51.462;14.346;2022-08-18T00:43:45;99640.03;;;23.11;61.27
29569;BME280;16501;51.462;14.346;2022-08-18T00:46:14;99643.47;;;23.09;61.52
29569;BME280;16501;51.462;14.346;2022-08-18T00:48:41;99615.72;;;22.79;61.84
29569;BME280;16501;51.462;14.346;2022-08-18T00:51:22;99540.75;;;22.17;61.89
29569;BME280;16501;51.462;14.346;2022-08-18T00:53:53;99644.06;;;23.00;62.33
29569;BME280;16501;51.462;14.346;2022-08-18T00:56:25;99645.41;;;22.99;63.40
29569;BME280;16501;51.462;14.346;2022-08-18T00:58:56;99602.00;;;22.77;62.96
29569;BME280;16501;51.462;14.346;2022-08-18T01:01:26;99644.44;;;22.96;62.44
29569;BME280;16501;51.462;14.346;2022-08-18T01:03:59;99637.78;;;22.94;63.06
29569;BME280;16501;51.462;14.346;2022-08-18T01:07:07;99474.75;;;21.82;63.38
29569;BME280;16501;51.462;14.346;2022-08-18T01:09:35;99625.25;;;22.82;63.50
29569;BME280;16501;51.462;14.346;2022-08-18T01:12:00;99583.00;;;22.57;64.15
29569;BME280;16501;51.462;14.346;2022-08-18T01:14:26;99536.78;;;21.97;64.16
29569;BME280;16501;51.462;14.346;2022-08-18T01:16:51;99584.19;;;22.38;64.29
29569;BME280;16501;51.462;14.346;2022-08-18T01:19:55;99540.19;;;22.03;64.96
29569;BME280;16501;51.462;14.346;2022-08-18T01:25:16;99625.84;;;22.57;65.48
29569;BME280;16501;51.462;14.346;2022-08-18T01:28:03;99632.31;;;22.65;65.62
29569;BME280;16501;51.462;14.346;2022-08-18T01:30:30;99628.91;;;22.59;65.35
29569;BME280;16501;51.462;14.346;2022-08-18T01:32:56;99588.94;;;22.28;65.36
29569;BME280;16501;51.462;14.346;2022-08-18T01:35:24;99615.22;;;22.42;64.95
29569;BME280;16501;51.462;14.346;2022-08-18T01:37:50;99636.31;;;22.62;65.13
29569;BME280;16501;51.462;14.346;2022-08-18T01:40:17;99619.78;;;22.53;65.59
29569;BME280;16501;51.462;14.346;2022-08-18T01:42:42;99587.78;;;22.23;65.96
29569;BME280;16501;51.462;14.346;2022-08-18T01:45:11;99635.41;;;22.44;66.01
29569;BME280;16501;51.462;14.346;2022-08-18T01:47:37;99622.22;;;22.26;66.28
29569;BME280;16501;51.462;14.346;2022-08-18T01:50:05;99624.91;;;22.39;66.36
29569;BME280;16501;51.462;14.346;2022-08-18T01:52:31;99634.25;;;22.32;66.08
29569;BME280;16501;51.462;14.346;2022-08-18T01:54:58;99527.63;;;21.52;65.97
29569;BME280;16501;51.462;14.346;2022-08-18T01:57:23;99588.16;;;22.04;66.12
29569;BME280;16501;51.462;14.346;2022-08-18T01:59:49;99623.41;;;22.30;66.11
29569;BME280;16501;51.462;14.346;2022-08-18T02:02:20;99621.13;;;22.29;66.09
29569;BME280;16501;51.462;14.346;2022-08-18T02:04:56;99622.63;;;22.14;66.49
29569;BME280;16501;51.462;14.346;2022-08-18T02:07:23;99601.09;;;22.06;66.96
29569;BME280;16501;51.462;14.346;2022-08-18T02:09:48;99637.28;;;22.11;67.09
29569;BME280;16501;51.462;14.346;2022-08-18T02:12:14;99622.06;;;22.16;67.80
29569;BME280;16501;51.462;14.346;2022-08-18T02:14:40;99626.97;;;22.15;68.27
29569;BME280;16501;51.462;14.346;2022-08-18T02:17:08;99561.13;;;21.67;68.10
29569;BME280;16501;51.462;14.346;2022-08-18T02:19:36;99628.72;;;22.11;68.19
29569;BME280;16501;51.462;14.346;2022-08-18T02:22:03;99634.22;;;22.09;67.98
29569;BME280;16501;51.462;14.346;2022-08-18T02:24:30;99634.59;;;22.05;68.02
29569;BME280;16501;51.462;14.346;2022-08-18T02:26:55;99601.06;;;21.75;68.19
29569;BME280;16501;51.462;14.346;2022-08-18T02:29:21;99490.38;;;20.83;68.12
29569;BME280;16501;51.462;14.346;2022-08-18T02:31:46;99600.88;;;21.73;69.29
29569;BME280;16501;51.462;14.346;2022-08-18T02:34:11;99566.53;;;21.34;68.92
29569;BME280;16501;51.462;14.346;2022-08-18T02:36:37;99535.13;;;21.11;68.99
29569;BME280;16501;51.462;14.346;2022-08-18T02:39:02;99635.31;;;21.67;69.10
29569;BME280;16501;51.462;14.346;2022-08-18T02:41:28;99548.81;;;21.13;69.18
29569;BME280;16501;51.462;14.346;2022-08-18T02:43:53;99593.00;;;21.42;69.67
29569;BME280;16501;51.462;14.346;2022-08-18T02:46:18;99539.44;;;20.97;69.46
29569;BME280;16501;51.462;14.346;2022-08-18T02:48:44;99572.19;;;21.19;70.13
29569;BME280;16501;51.462;14.346;2022-08-18T02:51:15;99479.13;;;20.69;70.16
29569;BME280;16501;51.462;14.346;2022-08-18T02:53:42;99629.97;;;21.71;70.13
29569;BME280;16501;51.462;14.346;2022-08-18T02:56:19;99627.69;;;21.70;69.68
29569;BME280;16501;51.462;14.346;2022-08-18T02:59:02;99628.63;;;21.64;70.29
29569;BME280;16501;51.462;14.346;2022-08-18T03:01:31;99615.28;;;21.52;70.75
29569;BME280;16501;51.462;14.346;2022-08-18T03:03:58;99622.09;;;21.41;70.85
29569;BME280;16501;51.462;14.346;2022-08-18T03:06:24;99625.75;;;21.57;71.14
29569;BME280;16501;51.462;14.346;2022-08-18T03:08:50;99617.97;;;21.57;71.00
29569;BME280;16501;51.462;14.346;2022-08-18T03:11:22;99621.38;;;21.56;70.88
29569;BME280;16501;51.462;14.346;2022-08-18T03:13:48;99603.25;;;21.38;71.08
29569;BME280;16501;51.462;14.346;2022-08-18T03:16:14;99614.28;;;21.41;70.92
29569;BME280;16501;51.462;14.346;2022-08-18T03:18:42;99466.47;;;20.49;70.95
29569;BME280;16501;51.462;14.346;2022-08-18T03:21:09;99625.31;;;21.37;71.72
29569;BME280;16501;51.462;14.346;2022-08-18T03:23:35;99573.88;;;21.06;72.09
29569;BME280;16501;51.462;14.346;2022-08-18T03:26:01;99615.03;;;21.42;72.46
29569;BME280;16501;51.462;14.346;2022-08-18T03:28:27;99597.69;;;21.24;72.31
29569;BME280;16501;51.462;14.346;2022-08-18T03:30:53;99599.41;;;21.35;72.86
29569;BME280;16501;51.462;14.346;2022-08-18T03:33:18;99559.41;;;21.04;72.85
29569;BME280;16501;51.462;14.346;2022-08-18T03:35:43;99516.38;;;20.79;72.49
29569;BME280;16501;51.462;14.346;2022-08-18T03:38:10;99609.69;;;21.38;72.37
29569;BME280;16501;51.462;14.346;2022-08-18T03:40:35;99532.69;;;20.71;72.93
29569;BME280;16501;51.462;14.346;2022-08-18T03:43:03;99514.38;;;20.59;72.76
29569;BME280;16501;51.462;14.346;2022-08-18T03:45:33;99620.34;;;21.38;72.95
29569;BME280;16501;51.462;14.346;2022-08-18T03:47:59;99607.97;;;21.35;73.29
29569;BME280;16501;51.462;14.346;2022-08-18T03:50:26;99564.38;;;21.04;73.54
29569;BME280;16501;51.462;14.346;2022-08-18T03:52:52;99504.03;;;20.48;73.25
29569;BME280;16501;51.462;14.346;2022-08-18T03:55:18;99576.69;;;20.99;73.96
29569;BME280;16501;51.462;14.346;2022-08-18T03:57:43;99601.63;;;21.14;73.91
29569;BME280;16501;51.462;14.346;2022-08-18T04:00:10;99583.53;;;21.03;74.37
29569;BME280;16501;51.462;14.346;2022-08-18T04:02:35;99582.94;;;20.97;74.57
29569;BME280;16501;51.462;14.346;2022-08-18T04:05:01;99498.63;;;20.29;75.33
29569;BME280;16501;51.462;14.346;2022-08-18T04:07:35;99625.00;;;21.12;75.58
29569;BME280;16501;51.462;14.346;2022-08-18T04:10:01;99595.09;;;20.90;75.06
29569;BME280;16501;51.462;14.346;2022-08-18T04:12:26;99593.25;;;20.71;74.25
29569;BME280;16501;51.462;14.346;2022-08-18T04:14:51;99595.78;;;20.83;73.79
29569;BME280;16501;51.462;14.346;2022-08-18T04:17:18;99613.94;;;21.01;73.64
29569;BME280;16501;51.462;14.346;2022-08-18T04:19:52;99598.69;;;20.90;73.69
29569;BME280;16501;51.462;14.346;2022-08-18T04:22:17;99572.75;;;20.73;73.48
29569;BME280;16501;51.462;14.346;2022-08-18T04:24:43;99585.63;;;20.66;73.53
29569;BME280;16501;51.462;14.346;2022-08-18T04:27:09;99508.44;;;20.20;74.18
29569;BME280;16501;51.462;14.346;2022-08-18T04:29:34;99581.94;;;20.58;74.15
29569;BME280;16501;51.462;14.346;2022-08-18T04:32:01;99600.44;;;20.65;74.27
29569;BME280;16501;51.462;14.346;2022-08-18T04:34:29;99604.31;;;20.83;74.21
29569;BME280;16501;51.462;14.346;2022-08-18T04:36:55;99606.06;;;20.86;73.91
29569;BME280;16501;51.462;14.346;2022-08-18T04:39:22;99550.59;;;20.50;74.08
29569;BME280;16501;51.462;14.346;2022-08-18T04:41:47;99574.88;;;20.51;73.89
29569;BME280;16501;51.462;14.346;2022-08-18T04:44:13;99560.41;;;20.42;73.86
29569;BME280;16501;51.462;14.346;2022-08-18T04:46:44;99600.63;;;20.67;74.37
29569;BME280;16501;51.462;14.346;2022-08-18T04:49:10;99634.38;;;20.91;74.62
29569;BME280;16501;51.462;14.346;2022-08-18T04:51:41;99515.31;;;20.25;74.53
29569;BME280;16501;51.462;14.346;2022-08-18T04:54:07;99585.78;;;20.61;75.53
29569;BME280;16501;51.462;14.346;2022-08-18T04:56:36;99567.50;;;20.56;74.68
29569;BME280;16501;51.462;14.346;2022-08-18T05:01:34;99652.22;;;21.21;76.17
29569;BME280;16501;51.462;14.346;2022-08-18T05:04:01;99657.03;;;21.34;76.64
29569;BME280;16501;51.462;14.346;2022-08-18T05:06:27;99628.31;;;21.32;76.75
29569;BME280;16501;51.462;14.346;2022-08-18T05:08:59;99630.56;;;21.25;76.51
29569;BME280;16501;51.462;14.346;2022-08-18T05:11:26;99629.22;;;21.26;77.26
29569;BME280;16501;51.462;14.346;2022-08-18T05:14:00;99558.25;;;21.00;77.30
29569;BME280;16501;51.462;14.346;2022-08-18T05:16:26;99657.59;;;21.84;77.36
29569;BME280;16501;51.462;14.346;2022-08-18T05:18:54;99539.28;;;21.10;76.78
29569;BME280;16501;51.462;14.346;2022-08-18T05:21:20;99474.34;;;20.64;76.78
29569;BME280;16501;51.462;14.346;2022-08-18T05:23:48;99447.06;;;20.40;76.34
29569;BME280;16501;51.462;14.346;2022-08-18T05:26:16;99549.63;;;21.36;76.91
29569;BME280;16501;51.462;14.346;2022-08-18T05:28:43;99444.28;;;20.56;77.05
29569;BME280;16501;51.462;14.346;2022-08-18T05:31:12;99659.78;;;22.30;77.65
29569;BME280;16501;51.462;14.346;2022-08-18T05:33:38;99646.63;;;22.19;77.51
29569;BME280;16501;51.462;14.346;2022-08-18T05:39:00;99665.09;;;22.49;77.65
29569;BME280;16501;51.462;14.346;2022-08-18T05:41:31;99677.66;;;22.61;77.40
29569;BME280;16501;51.462;14.346;2022-08-18T05:43:59;99634.63;;;22.36;77.56
29569;BME280;16501;51.462;14.346;2022-08-18T05:46:44;99586.44;;;22.09;77.42
29569;BME280;16501;51.462;14.346;2022-08-18T05:49:11;99596.19;;;22.37;76.45
29569;BME280;16501;51.462;14.346;2022-08-18T05:51:41;99620.34;;;22.51;76.23
29569;BME280;16501;51.462;14.346;2022-08-18T05:54:08;99653.03;;;22.96;75.78
29569;BME280;16501;51.462;14.346;2022-08-18T05:56:56;99630.41;;;22.75;74.47
29569;BME280;16501;51.462;14.346;2022-08-18T05:59:30;99609.81;;;22.69;74.32
29569;BME280;16501;51.462;14.346;2022-08-18T06:02:03;99536.00;;;22.12;73.99
29569;BME280;16501;51.462;14.346;2022-08-18T06:04:43;99660.41;;;23.23;73.82
29569;BME280;16501;51.462;14.346;2022-08-18T06:07:18;99564.31;;;22.64;73.61
29569;BME280;16501;51.462;14.346;2022-08-18T06:09:51;99521.50;;;22.48;73.71
29569;BME280;16501;51.462;14.346;2022-08-18T06:12:23;99658.19;;;23.54;73.24
29569;BME280;16501;51.462;14.346;2022-08-18T06:14:50;99660.41;;;23.63;72.27
29569;BME280;16501;51.462;14.346;2022-08-18T06:17:53;99604.13;;;23.33;72.28
29569;BME280;16501;51.462;14.346;2022-08-18T06:23:54;99563.91;;;23.23;71.25
29569;BME280;16501;51.462;14.346;2022-08-18T06:26:49;99669.50;;;24.10;66.79
29569;BME280;16501;51.462;14.346;2022-08-18T06:32:48;99590.44;;;23.89;67.75
29569;BME280;16501;51.462;14.346;2022-08-18T06:35:47;99667.81;;;24.57;67.72
29569;BME280;16501;51.462;14.346;2022-08-18T06:41:16;99603.34;;;24.23;67.78
29569;BME280;16501;51.462;14.346;2022-08-18T06:43:52;99577.75;;;24.25;67.64
29569;BME280;16501;51.462;14.346;2022-08-18T06:46:22;99567.53;;;24.15;67.75
29569;BME280;16501;51.462;14.346;2022-08-18T06:48:55;99662.66;;;24.98;67.63
29569;BME280;16501;51.462;14.346;2022-08-18T06:51:26;99593.25;;;24.40;66.52
29569;BME280;16501;51.462;14.346;2022-08-18T06:54:04;99680.03;;;25.18;66.40
29569;BME280;16501;51.462;14.346;2022-08-18T07:01:40;99669.50;;;25.20;65.00
29569;BME280;16501;51.462;14.346;2022-08-18T07:04:06;99540.66;;;24.27;64.36
29569;BME280;16501;51.462;14.346;2022-08-18T07:06:31;99611.63;;;24.79;63.30
29569;BME280;16501;51.462;14.346;2022-08-18T07:09:17;99672.78;;;25.52;63.15
29569;BME280;16501;51.462;14.346;2022-08-18T07:11:59;99679.66;;;25.66;63.14
29569;BME280;16501;51.462;14.346;2022-08-18T07:14:25;99632.38;;;25.40;60.58
29569;BME280;16501;51.462;14.346;2022-08-18T07:17:10;99559.56;;;25.00;59.51
29569;BME280;16501;51.462;14.346;2022-08-18T07:19:36;99623.41;;;25.53;59.32
29569;BME280;16501;51.462;14.346;2022-08-18T07:22:12;99668.25;;;26.03;58.12
29569;BME280;16501;51.462;14.346;2022-08-18T07:24:46;99667.66;;;26.05;57.50
29569;BME280;16501;51.462;14.346;2022-08-18T07:27:20;99525.63;;;25.24;56.87
29569;BME280;16501;51.462;14.346;2022-08-18T07:30:12;99604.06;;;25.91;56.87
29569;BME280;16501;51.462;14.346;2022-08-18T07:32:50;99673.78;;;26.65;54.61
29569;BME280;16501;51.462;14.346;2022-08-18T07:35:21;99616.59;;;26.23;54.07
29569;BME280;16501;51.462;14.346;2022-08-18T07:37:59;99581.81;;;26.19;54.32
29569;BME280;16501;51.462;14.346;2022-08-18T07:40:52;99650.03;;;26.75;53.38
29569;BME280;16501;51.462;14.346;2022-08-18T07:43:25;99656.13;;;26.88;51.96
29569;BME280;16501;51.462;14.346;2022-08-18T07:45:56;99598.84;;;26.53;51.07
29569;BME280;16501;51.462;14.346;2022-08-18T07:48:31;99676.13;;;27.25;50.82
29569;BME280;16501;51.462;14.346;2022-08-18T07:51:22;99679.63;;;27.34;48.93
29569;BME280;16501;51.462;14.346;2022-08-18T07:54:01;99668.41;;;27.38;48.44
29569;BME280;16501;51.462;14.346;2022-08-18T07:56:32;99691.59;;;27.59;48.99
29569;BME280;16501;51.462;14.346;2022-08-18T07:59:08;99615.53;;;27.23;49.02
29569;BME280;16501;51.462;14.346;2022-08-18T08:04:46;99681.50;;;27.99;47.35
29569;BME280;16501;51.462;14.346;2022-08-18T08:07:16;99658.47;;;27.99;45.60
29569;BME280;16501;51.462;14.346;2022-08-18T08:12:46;99691.63;;;28.51;44.71
29569;BME280;16501;51.462;14.346;2022-08-18T08:15:31;99634.50;;;28.28;45.02
29569;BME280;16501;51.462;14.346;2022-08-18T08:18:17;99686.94;;;28.77;43.66
29569;BME280;16501;51.462;14.346;2022-08-18T08:20:59;99667.38;;;28.76;43.41
29569;BME280;16501;51.462;14.346;2022-08-18T08:23:35;99619.34;;;28.59;43.79
29569;BME280;16501;51.462;14.346;2022-08-18T08:26:22;99657.31;;;28.77;42.94
29569;BME280;16501;51.462;14.346;2022-08-18T08:29:13;99691.78;;;29.28;42.90
29569;BME280;16501;51.462;14.346;2022-08-18T08:32:07;99691.78;;;29.40;42.58
29569;BME280;16501;51.462;14.346;2022-08-18T08:34:42;99629.41;;;29.13;42.00
29569;BME280;16501;51.462;14.346;2022-08-18T08:37:13;99648.53;;;29.18;41.19
29569;BME280;16501;51.462;14.346;2022-08-18T08:39:56;99693.72;;;29.80;40.97
29569;BME280;16501;51.462;14.346;2022-08-18T08:42:38;99694.00;;;29.96;40.47
29569;BME280;16501;51.462;14.346;2022-08-18T08:45:12;99588.34;;;29.36;40.67
29569;BME280;16501;51.462;14.346;2022-08-18T08:50:50;99684.63;;;30.31;39.37
29569;BME280;16501;51.462;14.346;2022-08-18T08:53:24;99676.97;;;30.36;39.99
29569;BME280;16501;51.462;14.346;2022-08-18T08:55:56;99679.22;;;30.49;39.79
29569;BME280;16501;51.462;14.346;2022-08-18T09:00:51;99669.63;;;30.70;37.61
29569;BME280;16501;51.462;14.346;2022-08-18T09:03:34;99624.28;;;30.25;37.24
29569;BME280;16501;51.462;14.346;2022-08-18T09:06:24;99658.53;;;30.90;37.20
29569;BME280;16501;51.462;14.346;2022-08-18T09:09:09;99641.91;;;30.91;35.78
29569;BME280;16501;51.462;14.346;2022-08-18T09:15:09;99621.19;;;31.20;34.76
29569;BME280;16501;51.462;14.346;2022-08-18T09:21:03;99634.91;;;31.45;33.94
29569;BME280;16501;51.462;14.346;2022-08-18T09:23:39;99625.25;;;31.41;33.85
29569;BME280;16501;51.462;14.346;2022-08-18T09:28:58;99614.19;;;31.63;34.12
29569;BME280;16501;51.462;14.346;2022-08-18T09:31:34;99606.44;;;31.53;33.26
29569;BME280;16501;51.462;14.346;2022-08-18T09:40:17;99624.94;;;32.13;33.50
29569;BME280;16501;51.462;14.346;2022-08-18T09:43:13;99576.66;;;31.92;34.14
29569;BME280;16501;51.462;14.346;2022-08-18T09:45:55;99615.56;;;32.43;32.79
29569;BME280;16501;51.462;14.346;2022-08-18T09:48:28;99628.59;;;32.56;33.53
29569;BME280;16501;51.462;14.346;2022-08-18T09:50:57;99613.31;;;32.69;32.75
29569;BME280;16501;51.462;14.346;2022-08-18T09:53:36;99586.16;;;32.48;33.16
29569;BME280;16501;51.462;14.346;2022-08-18T09:56:04;99553.59;;;32.36;33.21
29569;BME280;16501;51.462;14.346;2022-08-18T09:58:50;99606.84;;;32.84;32.66
29569;BME280;16501;51.462;14.346;2022-08-18T10:01:37;99600.94;;;32.82;31.88
29569;BME280;16501;51.462;14.346;2022-08-18T10:06:39;99493.66;;;31.71;31.99
29569;BME280;16501;51.462;14.346;2022-08-18T10:09:45;99609.47;;;32.64;32.27
29569;BME280;16501;51.462;14.346;2022-08-18T10:15:31;99530.84;;;32.74;31.67
29569;BME280;16501;51.462;14.346;2022-08-18T10:20:50;99593.56;;;32.95;31.88
29569;BME280;16501;51.462;14.346;2022-08-18T10:29:10;99579.72;;;32.94;32.33
29569;BME280;16501;51.462;14.346;2022-08-18T10:37:26;99575.34;;;33.38;31.46
29569;BME280;16501;51.462;14.346;2022-08-18T10:39:59;99570.63;;;33.15;31.75
29569;BME280;16501;51.462;14.346;2022-08-18T10:42:34;99512.28;;;32.51;32.31
29569;BME280;16501;51.462;14.346;2022-08-18T10:45:11;99577.53;;;33.08;31.62
29569;BME280;16501;51.462;14.346;2022-08-18T10:47:37;99483.28;;;32.51;31.49
29569;BME280;16501;51.462;14.346;2022-08-18T10:50:18;99522.38;;;32.78;31.31
29569;BME280;16501;51.462;14.346;2022-08-18T10:52:57;99569.56;;;33.08;32.02
29569;BME280;16501;51.462;14.346;2022-08-18T10:56:00;99580.88;;;33.02;31.51
29569;BME280;16501;51.462;14.346;2022-08-18T10:59:07;99573.38;;;32.97;31.80
29569;BME280;16501;51.462;14.346;2022-08-18T11:01:51;99569.00;;;33.12;32.29
29569;BME280;16501;51.462;14.346;2022-08-18T11:04:27;99561.13;;;33.29;30.89
29569;BME280;16501;51.462;14.346;2022-08-18T11:09:29;99574.06;;;33.41;30.26
29569;BME280;16501;51.462;14.346;2022-08-18T11:11:58;99567.59;;;33.43;30.98
29569;BME280;16501;51.462;14.346;2022-08-18T11:17:32;99566.16;;;33.44;31.29
29569;BME280;16501;51.462;14.346;2022-08-18T11:20:00;99565.03;;;33.35;30.36
29569;BME280;16501;51.462;14.346;2022-08-18T11:22:31;99554.59;;;33.14;29.79
29569;BME280;16501;51.462;14.346;2022-08-18T11:24:58;99561.75;;;32.97;30.77
29569;BME280;16501;51.462;14.346;2022-08-18T11:27:29;99552.28;;;32.97;31.65
29569;BME280;16501;51.462;14.346;2022-08-18T11:29:58;99556.09;;;32.85;31.07
29569;BME280;16501;51.462;14.346;2022-08-18T11:32:28;99555.13;;;32.81;31.80
29569;BME280;16501;51.462;14.346;2022-08-18T11:42:58;99559.91;;;32.46;31.40
29569;BME280;16501;51.462;14.346;2022-08-18T11:45:31;99498.63;;;32.10;31.08
29569;BME280;16501;51.462;14.346;2022-08-18T11:53:33;99509.13;;;31.90;32.52
29569;BME280;16501;51.462;14.346;2022-08-18T12:01:08;99589.69;;;32.33;31.78
29569;BME280;16501;51.462;14.346;2022-08-18T12:03:44;99577.03;;;32.26;31.58
29569;BME280;16501;51.462;14.346;2022-08-18T12:06:28;99578.31;;;32.23;32.31
29569;BME280;16501;51.462;14.346;2022-08-18T12:08:58;99519.88;;;31.73;32.74
29569;BME280;16501;51.462;14.346;2022-08-18T12:11:31;99498.06;;;31.58;33.68
29569;BME280;16501;51.462;14.346;2022-08-18T12:14:09;99596.13;;;32.04;33.35
29569;BME280;16501;51.462;14.346;2022-08-18T12:16:41;99536.47;;;31.59;32.61
29569;BME280;16501;51.462;14.346;2022-08-18T12:19:11;99515.13;;;31.66;32.91
29569;BME280;16501;51.462;14.346;2022-08-18T12:21:41;99517.25;;;31.52;32.75
29569;BME280;16501;51.462;14.346;2022-08-18T12:24:23;99573.44;;;31.86;33.10
29569;BME280;16501;51.462;14.346;2022-08-18T12:26:50;99581.41;;;31.86;33.14
29569;BME280;16501;51.462;14.346;2022-08-18T12:29:16;99551.09;;;31.75;33.88
29569;BME280;16501;51.462;14.346;2022-08-18T12:31:46;99479.53;;;31.24;32.99
29569;BME280;16501;51.462;14.346;2022-08-18T12:34:12;99563.22;;;31.85;33.36
29569;BME280;16501;51.462;14.346;2022-08-18T12:36:38;99486.38;;;31.17;33.48
29569;BME280;16501;51.462;14.346;2022-08-18T12:39:05;99444.81;;;30.98;33.92
29569;BME280;16501;51.462;14.346;2022-08-18T12:41:30;99552.94;;;31.68;33.02
29569;BME280;16501;51.462;14.346;2022-08-18T12:43:56;99493.16;;;31.22;33.51
29569;BME280;16501;51.462;14.346;2022-08-18T12:46:21;99505.13;;;31.16;32.85
29569;BME280;16501;51.462;14.346;2022-08-18T12:48:47;99476.94;;;30.91;33.29
29569;BME280;16501;51.462;14.346;2022-08-18T12:51:14;99468.50;;;30.95;33.86
29569;BME280;16501;51.462;14.346;2022-08-18T12:53:39;99470.31;;;30.88;34.38
29569;BME280;16501;51.462;14.346;2022-08-18T12:56:17;99541.69;;;31.49;34.45
29569;BME280;16501;51.462;14.346;2022-08-18T12:58:43;99472.50;;;31.01;34.40
29569;BME280;16501;51.462;14.346;2022-08-18T13:01:09;99475.28;;;30.99;34.33
29569;BME280;16501;51.462;14.346;2022-08-18T13:03:34;99559.75;;;31.61;34.33
29569;BME280;16501;51.462;14.346;2022-08-18T13:06:00;99491.91;;;30.99;34.21
29569;BME280;16501;51.462;14.346;2022-08-18T13:08:32;99453.53;;;30.73;34.89
29569;BME280;16501;51.462;14.346;2022-08-18T13:10:58;99530.38;;;31.27;35.49
29569;BME280;16501;51.462;14.346;2022-08-18T13:13:24;99470.88;;;30.73;35.78
29569;BME280;16501;51.462;14.346;2022-08-18T13:15:50;99568.50;;;31.35;36.03
29569;BME280;16501;51.462;14.346;2022-08-18T13:18:18;99447.75;;;30.35;36.30
29569;BME280;16501;51.462;14.346;2022-08-18T13:20:44;99451.09;;;30.55;35.89
29569;BME280;16501;51.462;14.346;2022-08-18T13:23:09;99523.16;;;31.14;35.61
29569;BME280;16501;51.462;14.346;2022-08-18T13:25:34;99542.75;;;31.42;35.75
29569;BME280;16501;51.462;14.346;2022-08-18T13:28:02;99479.72;;;30.89;35.53
29569;BME280;16501;51.462;14.346;2022-08-18T13:30:28;99410.88;;;30.48;35.53
29569;BME280;16501;51.462;14.346;2022-08-18T13:32:53;99460.53;;;30.81;35.82
29569;BME280;16501;51.462;14.346;2022-08-18T13:35:19;99461.97;;;30.94;35.34
29569;BME280;16501;51.462;14.346;2022-08-18T13:37:44;99552.38;;;31.58;35.83
29569;BME280;16501;51.462;14.346;2022-08-18T13:40:10;99498.41;;;31.25;35.50
29569;BME280;16501;51.462;14.346;2022-08-18T13:42:45;99445.34;;;30.95;35.48
29569;BME280;16501;51.462;14.346;2022-08-18T13:45:11;99427.75;;;31.30;35.80
29569;BME280;16501;51.462;14.346;2022-08-18T13:47:39;99446.75;;;31.61;35.01
29569;BME280;16501;51.462;14.346;2022-08-18T13:50:05;99482.81;;;32.27;33.36
29569;BME280;16501;51.462;14.346;2022-08-18T13:52:31;99406.50;;;32.09;33.47
29569;BME280;16501;51.462;14.346;2022-08-18T13:54:56;99453.59;;;32.67;31.88
29569;BME280;16501;51.462;14.346;2022-08-18T13:57:22;99401.41;;;32.23;31.98
29569;BME280;16501;51.462;14.346;2022-08-18T13:59:47;99308.63;;;31.80;32.24
29569;BME280;16501;51.462;14.346;2022-08-18T14:02:13;99411.84;;;32.44;31.92
29569;BME280;16501;51.462;14.346;2022-08-18T14:04:40;99367.50;;;32.42;30.71
29569;BME280;16501;51.462;14.346;2022-08-18T14:07:09;99529.44;;;33.35;31.40
29569;BME280;16501;51.462;14.346;2022-08-18T14:09:34;99396.44;;;32.56;31.01
29569;BME280;16501;51.462;14.346;2022-08-18T14:12:08;99337.78;;;32.27;31.08
29569;BME280;16501;51.462;14.346;2022-08-18T14:14:37;99402.97;;;32.70;31.18
29569;BME280;16501;51.462;14.346;2022-08-18T14:17:05;99426.66;;;32.80;31.35
29569;BME280;16501;51.462;14.346;2022-08-18T14:19:30;99334.75;;;32.09;31.60
29569;BME280;16501;51.462;14.346;2022-08-18T14:22:14;99450.44;;;32.77;32.54
29569;BME280;16501;51.462;14.346;2022-08-18T14:24:58;99438.56;;;32.57;31.47
29569;BME280;16501;51.462;14.346;2022-08-18T14:27:42;99375.81;;;32.33;29.62
29569;BME280;16501;51.462;14.346;2022-08-18T14:30:12;99506.81;;;33.17;29.81
29569;BME280;16501;51.462;14.346;2022-08-18T14:32:41;99507.91;;;33.10;31.71
29569;BME280;16501;51.462;14.346;2022-08-18T14:35:09;99514.09;;;33.02;31.38
29569;BME280;16501;51.462;14.346;2022-08-18T14:37:35;99331.19;;;31.67;31.78
29569;BME280;16501;51.462;14.346;2022-08-18T14:40:01;99443.09;;;32.02;31.82
29569;BME280;16501;51.462;14.346;2022-08-18T14:42:26;99515.22;;;32.81;31.50
29569;BME280;16501;51.462;14.346;2022-08-18T14:44:55;99463.06;;;32.10;32.36
29569;BME280;16501;51.462;14.346;2022-08-18T14:47:22;99448.69;;;32.12;31.96